Time;durP1;ratioP1;P1;durP2;ratioP2;P2;SDS_P1;SDS_P2;PMS_P1;PMS_P2;Temp;Humidity;BMP_temperature;BMP_pressure;BME280_temperature;BME280_humidity;BME280_pressure;Samples;Min_cycle;Max_cycle;Signal;HPM_P1;HPM_P2
2022/12/09 06:39:56;;;;;;;;;;;;;;;0.28;81.81;96928.25;5480989;23;19963;-63
2022/12/09 06:42:21;;;;;;;;;;;;;;;0.29;81.67;96923.94;4830284;29;19955;-65
2022/12/09 06:44:46;;;;;;;;;;;;;;;0.31;82.26;96922.09;4838242;29;19928;-64
2022/12/09 06:47:11;;;;;;;;;;;;;;;0.34;82.14;96921.94;4847889;29;19968;-64
2022/12/09 06:49:37;;;;;;;;;;;;;;;0.37;82.12;96922.63;4855545;29;19912;-64
2022/12/09 06:52:02;;;;;;;;;;;;;;;0.37;81.82;96920.06;4839208;29;19912;-64
2022/12/09 06:54:27;;;;;;;;;;;;;;;0.37;81.68;96922.63;4834510;29;20345;-65
2022/12/09 06:56:52;;;;;;;;;;;;;;;0.30;81.29;96920.44;4826017;29;19917;-63
2022/12/09 06:59:17;;;;;;;;;;;;;;;0.28;80.80;96923.09;4823149;29;19920;-64
2022/12/09 07:01:43;;;;;;;;;;;;;;;0.30;80.96;96923.00;4830581;29;19916;-63
2022/12/09 07:04:08;;;;;;;;;;;;;;;0.26;80.99;96924.91;4832167;29;20355;-64
2022/12/09 07:06:40;;;;;;;;;;;;;;;0.25;80.36;96930.97;4844819;29;20373;-64
2022/12/09 07:09:32;;;;;;;;;;;;;;;0.26;80.52;96929.22;4826635;29;20011;-63
2022/12/09 07:11:57;;;;;;;;;;;;;;;0.20;80.84;96931.19;4821078;29;20354;-64
2022/12/09 07:14:22;;;;;;;;;;;;;;;0.17;81.28;96936.50;4823897;29;19924;-64
2022/12/09 07:16:48;;;;;;;;;;;;;;;0.18;80.50;96933.00;4828971;29;19913;-65
2022/12/09 07:19:15;;;;;;;;;;;;;;;0.24;81.02;96937.03;4847089;29;20394;-65
2022/12/09 07:21:40;;;;;;;;;;;;;;;0.30;81.05;96935.91;4842925;29;19917;-64
2022/12/09 07:24:05;;;;;;;;;;;;;;;0.33;81.35;96938.34;4824782;29;19943;-64
2022/12/09 07:26:31;;;;;;;;;;;;;;;0.36;81.36;96938.19;4832738;29;19912;-63
2022/12/09 07:28:56;;;;;;;;;;;;;;;0.39;80.96;96936.31;4839375;29;20308;-64
2022/12/09 07:31:23;;;;;;;;;;;;;;;0.42;80.32;96937.91;4833213;29;20369;-64
2022/12/09 07:33:48;;;;;;;;;;;;;;;0.43;80.46;96937.00;4855031;29;20437;-65
2022/12/09 07:36:13;;;;;;;;;;;;;;;0.44;80.66;96938.66;4823929;29;19916;-65
2022/12/09 07:38:39;;;;;;;;;;;;;;;0.47;80.84;96938.50;4825620;29;19967;-65
2022/12/09 07:41:05;;;;;;;;;;;;;;;0.50;81.18;96930.63;4830788;29;19916;-66
2022/12/09 07:43:33;;;;;;;;;;;;;;;0.56;81.59;96932.91;4828627;29;19916;-64
2022/12/09 07:45:59;;;;;;;;;;;;;;;0.61;81.48;96941.25;4826866;29;19967;-64
2022/12/09 07:48:24;;;;;;;;;;;;;;;0.65;81.22;96941.94;4832755;29;19952;-64
2022/12/09 07:50:49;;;;;;;;;;;;;;;0.70;81.08;96939.97;4823417;29;19916;-64
2022/12/09 07:53:14;;;;;;;;;;;;;;;0.75;80.91;96934.59;4837829;29;19920;-64
2022/12/09 07:55:39;;;;;;;;;;;;;;;0.80;80.91;96928.28;4834248;29;19916;-64
2022/12/09 07:58:05;;;;;;;;;;;;;;;0.87;81.07;96926.25;4821917;29;19925;-65
2022/12/09 08:00:30;;;;;;;;;;;;;;;0.91;80.84;96927.75;4824367;29;19924;-65
2022/12/09 08:02:55;;;;;;;;;;;;;;;0.94;81.00;96932.75;4827490;29;19917;-64
2022/12/09 08:05:20;;;;;;;;;;;;;;;1.01;80.87;96923.78;4832146;29;20370;-64
2022/12/09 08:07:46;;;;;;;;;;;;;;;1.09;81.00;96926.81;4845533;29;19928;-66
2022/12/09 08:10:11;;;;;;;;;;;;;;;1.15;81.52;96916.19;4832805;29;19960;-65
2022/12/09 08:12:36;;;;;;;;;;;;;;;1.21;81.00;96919.38;4817046;29;19913;-65
2022/12/09 08:15:01;;;;;;;;;;;;;;;1.25;81.21;96915.72;4826089;29;19924;-64
2022/12/09 08:17:28;;;;;;;;;;;;;;;1.29;81.31;96918.03;4824101;29;19927;-66
2022/12/09 08:19:53;;;;;;;;;;;;;;;1.34;81.09;96916.06;4830153;29;19916;-65
2022/12/09 08:22:18;;;;;;;;;;;;;;;1.38;81.30;96911.59;4843182;29;19939;-64
2022/12/09 08:24:44;;;;;;;;;;;;;;;1.47;81.00;96911.06;4833217;29;20092;-65
2022/12/09 08:27:09;;;;;;;;;;;;;;;1.53;80.53;96903.00;4820521;29;19920;-66
2022/12/09 08:29:34;;;;;;;;;;;;;;;1.56;80.59;96904.59;4823102;29;19923;-65
2022/12/09 08:31:59;;;;;;;;;;;;;;;1.62;80.52;96893.94;4831281;29;19917;-63
2022/12/09 08:34:24;;;;;;;;;;;;;;;1.71;80.58;96887.44;4836188;29;19916;-63
2022/12/09 08:36:50;;;;;;;;;;;;;;;1.77;80.31;96887.09;4840094;29;19931;-63
2022/12/09 08:39:15;;;;;;;;;;;;;;;1.84;80.29;96878.09;4823862;29;19917;-62
2022/12/09 08:41:41;;;;;;;;;;;;;;;1.91;80.08;96882.00;4824458;29;19917;-62
2022/12/09 08:44:07;;;;;;;;;;;;;;;2.01;79.84;96877.16;4844561;29;20364;-63
2022/12/09 08:46:32;;;;;;;;;;;;;;;2.09;79.92;96873.22;4823957;29;19916;-62
2022/12/09 08:49:00;;;;;;;;;;;;;;;2.18;79.62;96876.25;4830325;29;19927;-62
2022/12/09 08:51:25;;;;;;;;;;;;;;;2.26;79.01;96866.28;4818843;29;19916;-66
2022/12/09 08:53:50;;;;;;;;;;;;;;;2.39;78.47;96864.66;4822597;29;19932;-66
2022/12/09 08:56:15;;;;;;;;;;;;;;;2.54;77.94;96868.94;4820276;29;20358;-63
2022/12/09 08:58:41;;;;;;;;;;;;;;;2.68;77.88;96862.16;4820424;29;19967;-65
2022/12/09 09:01:06;;;;;;;;;;;;;;;2.78;77.54;96877.06;4849313;29;19921;-65
2022/12/09 09:03:31;;;;;;;;;;;;;;;2.90;77.26;96875.53;4824659;29;19972;-64
2022/12/09 09:06:03;;;;;;;;;;;;;;;3.01;77.26;96867.94;4823298;29;20065;-65
2022/12/09 09:08:28;;;;;;;;;;;;;;;3.05;76.63;96871.19;4826865;29;19923;-64
2022/12/09 09:10:53;;;;;;;;;;;;;;;3.11;76.05;96877.75;4820723;29;20313;-65
2022/12/09 09:13:19;;;;;;;;;;;;;;;3.17;75.53;96867.03;4836116;29;19954;-65
2022/12/09 09:15:44;;;;;;;;;;;;;;;3.28;75.38;96869.81;4823142;29;19965;-65
2022/12/09 09:18:09;;;;;;;;;;;;;;;3.36;74.38;96866.75;4823950;29;19919;-65
2022/12/09 09:20:34;;;;;;;;;;;;;;;3.48;74.76;96860.81;4823369;29;19916;-64
2022/12/09 09:22:59;;;;;;;;;;;;;;;3.58;73.95;96861.94;4823929;29;19913;-65
2022/12/09 09:25:25;;;;;;;;;;;;;;;3.69;73.83;96861.25;4822909;29;19924;-65
2022/12/09 09:27:50;;;;;;;;;;;;;;;3.73;73.89;96860.97;4824450;29;19928;-64
2022/12/09 09:30:15;;;;;;;;;;;;;;;3.78;73.58;96863.25;4842538;29;19917;-64
2022/12/09 09:32:40;;;;;;;;;;;;;;;3.86;73.74;96863.63;4823768;29;19916;-63
2022/12/09 09:35:06;;;;;;;;;;;;;;;3.94;73.51;96860.53;4825997;29;19920;-64
2022/12/09 09:37:31;;;;;;;;;;;;;;;4.09;72.93;96856.13;4826225;29;19931;-66
2022/12/09 09:39:56;;;;;;;;;;;;;;;4.24;72.71;96849.97;4821356;29;19917;-63
2022/12/09 09:42:23;;;;;;;;;;;;;;;4.31;71.96;96851.25;4843661;29;19912;-64
2022/12/09 09:44:49;;;;;;;;;;;;;;;4.38;71.81;96841.28;4838083;29;19921;-64
2022/12/09 09:47:16;;;;;;;;;;;;;;;4.40;71.02;96840.22;4820654;29;19921;-64
2022/12/09 09:49:47;;;;;;;;;;;;;;;4.40;70.47;96840.22;4840991;29;19941;-65
2022/12/09 09:52:15;;;;;;;;;;;;;;;4.43;70.14;96834.84;4829091;29;19928;-64
2022/12/09 09:54:40;;;;;;;;;;;;;;;4.49;69.94;96833.63;4837300;29;19918;-63
2022/12/09 09:57:23;;;;;;;;;;;;;;;4.47;69.78;96835.47;4830929;29;20313;-65
2022/12/09 09:59:57;;;;;;;;;;;;;;;4.48;69.40;96837.16;4824038;29;19927;-66
2022/12/09 10:02:29;;;;;;;;;;;;;;;4.51;69.45;96834.38;4825680;29;20289;-64
2022/12/09 10:05:07;;;;;;;;;;;;;;;4.51;68.76;96840.38;4818648;29;19913;-64
2022/12/09 10:07:35;;;;;;;;;;;;;;;4.48;68.65;96827.59;4819744;29;19921;-63
2022/12/09 10:10:18;;;;;;;;;;;;;;;4.44;68.45;96831.34;4830455;29;19917;-64
2022/12/09 10:12:49;;;;;;;;;;;;;;;4.44;68.23;96817.50;4825864;29;20007;-63
2022/12/09 10:15:15;;;;;;;;;;;;;;;4.43;68.23;96814.06;4830816;29;19974;-64
2022/12/09 10:17:54;;;;;;;;;;;;;;;4.44;68.18;96810.56;4845319;29;20392;-66
2022/12/09 10:20:23;;;;;;;;;;;;;;;4.48;68.01;96822.41;4838986;29;19927;-65
2022/12/09 10:22:57;;;;;;;;;;;;;;;4.48;67.63;96822.41;4835636;29;19916;-67
2022/12/09 10:25:23;;;;;;;;;;;;;;;4.46;67.42;96813.88;4842297;29;19916;-64
2022/12/09 10:27:51;;;;;;;;;;;;;;;4.55;67.60;96811.63;4819029;29;19920;-64
2022/12/09 10:30:16;;;;;;;;;;;;;;;4.62;66.89;96805.09;4814276;29;19914;-66
2022/12/09 10:32:41;;;;;;;;;;;;;;;4.70;67.03;96805.41;4822007;29;19917;-64
2022/12/09 10:35:14;;;;;;;;;;;;;;;4.90;66.21;96804.88;4831155;29;19925;-66
2022/12/09 10:37:39;;;;;;;;;;;;;;;5.11;65.92;96801.75;4844061;29;19971;-65
2022/12/09 10:40:12;;;;;;;;;;;;;;;5.21;65.80;96794.97;4831585;29;20380;-67
2022/12/09 10:45:32;;;;;;;;;;;;;;;5.32;64.50;96787.25;4833209;29;20008;-65
2022/12/09 10:47:57;;;;;;;;;;;;;;;5.38;64.75;96786.00;4832213;29;20019;-67
2022/12/09 10:50:32;;;;;;;;;;;;;;;5.34;64.20;96790.59;4825510;29;20381;-66
2022/12/09 10:52:58;;;;;;;;;;;;;;;5.28;64.27;96793.63;4837154;29;19913;-68
2022/12/09 10:55:26;;;;;;;;;;;;;;;5.23;65.12;96778.34;4835495;29;19938;-65
2022/12/09 10:57:51;;;;;;;;;;;;;;;5.14;64.65;96783.34;4828820;29;19925;-65
2022/12/09 11:00:20;;;;;;;;;;;;;;;5.09;65.62;96777.63;4835646;29;20446;-65
2022/12/09 11:02:50;;;;;;;;;;;;;;;4.97;65.45;96782.72;4830471;29;19912;-67
2022/12/09 11:05:26;;;;;;;;;;;;;;;4.90;65.81;96776.31;4820679;29;19974;-67
2022/12/09 11:07:51;;;;;;;;;;;;;;;4.92;66.21;96773.59;4834171;29;19945;-66
2022/12/09 11:10:23;;;;;;;;;;;;;;;4.89;65.64;96769.44;4816693;29;19917;-65
2022/12/09 11:12:53;;;;;;;;;;;;;;;4.88;65.49;96762.56;4838281;29;19919;-64
2022/12/09 11:15:37;;;;;;;;;;;;;;;4.89;65.70;96759.06;4828083;29;19920;-66
2022/12/09 11:18:06;;;;;;;;;;;;;;;4.89;65.79;96743.47;4813365;29;19917;-65
2022/12/09 11:20:31;;;;;;;;;;;;;;;4.88;65.76;96746.97;4828397;29;19916;-67
2022/12/09 11:23:01;;;;;;;;;;;;;;;4.93;65.48;96751.88;4829159;29;19923;-69
2022/12/09 11:25:27;;;;;;;;;;;;;;;4.98;65.85;96740.22;4833958;29;20374;-65
2022/12/09 11:27:55;;;;;;;;;;;;;;;5.04;65.03;96740.75;4827896;29;19921;-63
2022/12/09 11:30:21;;;;;;;;;;;;;;;5.09;64.92;96733.44;4820834;29;19924;-63
2022/12/09 11:32:53;;;;;;;;;;;;;;;5.19;64.46;96729.25;4826447;29;20400;-62
2022/12/09 11:35:19;;;;;;;;;;;;;;;5.28;63.40;96733.81;4816996;29;20008;-64
2022/12/09 11:37:44;;;;;;;;;;;;;;;5.35;63.05;96729.03;4818451;29;20008;-67
2022/12/09 11:40:14;;;;;;;;;;;;;;;5.40;62.41;96727.75;4819107;29;19916;-66
2022/12/09 11:42:39;;;;;;;;;;;;;;;5.41;62.07;96732.00;4837679;29;19920;-68
2022/12/09 11:45:06;;;;;;;;;;;;;;;5.39;61.38;96725.25;4823095;29;20278;-66
2022/12/09 11:47:45;;;;;;;;;;;;;;;5.36;60.71;96730.69;4836266;29;20396;-66
2022/12/09 11:50:10;;;;;;;;;;;;;;;5.37;60.16;96727.16;4834730;29;19916;-66
2022/12/09 11:52:35;;;;;;;;;;;;;;;5.41;60.33;96724.22;4838064;29;19923;-66
2022/12/09 11:55:12;;;;;;;;;;;;;;;5.50;59.91;96721.88;4821862;29;19917;-66
2022/12/09 11:57:40;;;;;;;;;;;;;;;5.54;59.89;96718.13;4824734;29;19913;-69
2022/12/09 12:00:13;;;;;;;;;;;;;;;5.56;59.28;96721.44;4828266;29;20350;-68
2022/12/09 12:02:39;;;;;;;;;;;;;;;5.60;59.09;96720.28;4826484;29;19916;-67
2022/12/09 12:05:15;;;;;;;;;;;;;;;5.72;58.88;96716.81;4820669;29;20011;-67
2022/12/09 12:07:42;;;;;;;;;;;;;;;5.84;57.97;96710.69;4838328;29;19917;-67
2022/12/09 12:10:42;;;;;;;;;;;;;;;5.92;57.83;96704.97;4826194;29;19920;-67
2022/12/09 12:13:17;;;;;;;;;;;;;;;5.96;58.07;96705.59;4812762;29;20012;-66
2022/12/09 12:15:48;;;;;;;;;;;;;;;5.90;58.17;96709.44;4817371;29;19920;-66
2022/12/09 12:18:17;;;;;;;;;;;;;;;5.78;57.92;96707.72;4837570;29;20266;-65
2022/12/09 12:21:02;;;;;;;;;;;;;;;5.63;58.48;96712.25;4828621;29;19960;-69
2022/12/09 12:23:31;;;;;;;;;;;;;;;5.57;59.10;96723.09;4815154;29;20391;-67
2022/12/09 12:25:56;;;;;;;;;;;;;;;5.53;59.59;96726.88;4819963;29;20392;-67
2022/12/09 12:28:26;;;;;;;;;;;;;;;5.40;59.46;96708.72;4824209;29;20725;-68
2022/12/09 12:30:54;;;;;;;;;;;;;;;5.28;60.30;96705.22;4837165;29;19913;-67
2022/12/09 12:33:31;;;;;;;;;;;;;;;5.23;60.53;96699.53;4834124;29;20448;-69
2022/12/09 12:36:01;;;;;;;;;;;;;;;5.17;61.01;96699.97;4822855;29;19916;-67
2022/12/09 12:38:32;;;;;;;;;;;;;;;5.11;61.85;96701.22;4846912;29;19913;-68
2022/12/09 12:41:15;;;;;;;;;;;;;;;5.10;62.20;96693.53;4829966;29;19943;-68
2022/12/09 12:46:46;;;;;;;;;;;;;;;5.07;62.26;96683.34;4820039;29;20305;-69
2022/12/09 12:49:33;;;;;;;;;;;;;;;5.04;62.03;96680.97;4836195;29;19928;-68
2022/12/09 12:52:02;;;;;;;;;;;;;;;4.97;61.76;96684.00;4824825;29;19924;-68
2022/12/09 12:54:45;;;;;;;;;;;;;;;5.00;62.22;96683.78;4819361;29;19962;-67
2022/12/09 12:57:17;;;;;;;;;;;;;;;5.34;61.66;96683.16;4819162;29;20369;-68
2022/12/09 12:59:49;;;;;;;;;;;;;;;5.52;61.55;96670.59;4820793;29;20011;-67
2022/12/09 13:02:27;;;;;;;;;;;;;;;5.64;61.11;96667.09;4822599;29;19917;-67
2022/12/09 13:05:31;;;;;;;;;;;;;;;5.79;60.14;96660.78;4830799;29;19917;-68
2022/12/09 13:07:57;;;;;;;;;;;;;;;5.86;58.70;96656.78;4787523;29;19952;-67
2022/12/09 13:10:22;;;;;;;;;;;;;;;5.80;58.79;96661.63;4787714;29;19913;-67
2022/12/09 13:12:52;;;;;;;;;;;;;;;5.71;58.66;96650.09;4799336;29;19935;-69
2022/12/09 13:15:18;;;;;;;;;;;;;;;5.68;59.23;96652.94;4786412;29;20042;-69
2022/12/09 13:17:44;;;;;;;;;;;;;;;5.73;58.97;96661.22;4787895;29;20008;-69
2022/12/09 13:20:14;;;;;;;;;;;;;;;5.74;58.35;96657.69;4800126;29;20330;-69
2022/12/09 13:22:43;;;;;;;;;;;;;;;5.68;57.78;96651.16;4786945;29;19917;-66
2022/12/09 13:25:17;;;;;;;;;;;;;;;5.63;58.36;96645.47;4802461;29;19924;-66
2022/12/09 13:27:44;;;;;;;;;;;;;;;5.57;59.07;96651.09;4787164;29;20422;-66
2022/12/09 13:30:22;;;;;;;;;;;;;;;5.54;59.41;96651.34;4787405;29;19921;-67
2022/12/09 13:32:53;;;;;;;;;;;;;;;5.50;59.39;96649.06;4792162;29;19921;-68
2022/12/09 13:35:20;;;;;;;;;;;;;;;5.42;58.92;96647.03;4802420;29;19917;-67
2022/12/09 13:37:45;;;;;;;;;;;;;;;5.34;56.53;96649.38;4806081;29;19913;-68
2022/12/09 13:40:19;;;;;;;;;;;;;;;5.30;56.40;96648.75;4831900;29;20266;-68
2022/12/09 13:43:00;;;;;;;;;;;;;;;5.25;55.81;96661.25;4823178;29;19916;-66
2022/12/09 13:45:28;;;;;;;;;;;;;;;5.18;55.34;96650.47;4816411;29;20469;-67
2022/12/09 13:47:58;;;;;;;;;;;;;;;5.13;55.16;96656.94;4825144;29;19920;-67
2022/12/09 13:50:29;;;;;;;;;;;;;;;5.13;56.06;96659.53;4848084;29;19954;-67
2022/12/09 13:52:55;;;;;;;;;;;;;;;5.07;55.03;96667.75;4839291;29;19973;-68
2022/12/09 13:55:20;;;;;;;;;;;;;;;5.00;55.90;96672.56;4825821;29;20283;-65
2022/12/09 13:57:50;;;;;;;;;;;;;;;4.96;55.92;96674.56;4821555;29;20400;-67
2022/12/09 14:00:15;;;;;;;;;;;;;;;4.95;56.99;96670.28;4837297;29;19974;-67
2022/12/09 14:02:41;;;;;;;;;;;;;;;4.90;57.06;96661.97;4835249;29;19959;-66
2022/12/09 14:05:14;;;;;;;;;;;;;;;4.89;57.68;96683.72;4831308;29;20023;-66
2022/12/09 14:07:46;;;;;;;;;;;;;;;4.87;58.10;96695.97;4815554;29;20341;-67
2022/12/09 14:10:32;;;;;;;;;;;;;;;4.86;57.45;96691.72;4818734;29;19913;-67
2022/12/09 14:12:57;;;;;;;;;;;;;;;4.84;57.76;96683.19;4829850;29;20045;-69
2022/12/09 14:15:22;;;;;;;;;;;;;;;4.83;57.83;96673.75;4818510;29;20411;-68
2022/12/09 14:17:47;;;;;;;;;;;;;;;4.87;58.33;96662.19;4822791;29;19912;-69
2022/12/09 14:20:42;;;;;;;;;;;;;;;4.89;58.34;96668.13;4829969;29;20385;-66
2022/12/09 14:23:08;;;;;;;;;;;;;;;4.91;58.13;96686.19;4827613;29;20383;-67
2022/12/09 14:25:33;;;;;;;;;;;;;;;4.89;58.24;96675.91;4823163;29;20358;-66
2022/12/09 14:28:10;;;;;;;;;;;;;;;4.89;57.88;96680.28;4822344;29;20254;-67
2022/12/09 14:30:57;;;;;;;;;;;;;;;4.87;58.11;96679.56;4822870;29;19921;-67
2022/12/09 14:33:29;;;;;;;;;;;;;;;4.80;57.94;96689.53;4835979;29;19935;-70
2022/12/09 14:35:55;;;;;;;;;;;;;;;4.75;58.66;96697.66;4834344;29;19928;-67
2022/12/09 14:38:26;;;;;;;;;;;;;;;4.67;59.12;96701.72;4849468;29;19922;-69
2022/12/09 14:41:10;;;;;;;;;;;;;;;4.61;59.76;96694.31;4836907;29;19963;-67
2022/12/09 14:43:41;;;;;;;;;;;;;;;4.55;59.80;96699.97;4820465;29;19927;-68
2022/12/09 14:46:22;;;;;;;;;;;;;;;4.49;60.23;96704.63;4818114;29;20000;-69
2022/12/09 14:48:54;;;;;;;;;;;;;;;4.43;60.92;96709.41;4830979;29;20369;-66
2022/12/09 14:51:29;;;;;;;;;;;;;;;4.37;60.85;96713.25;4833487;29;19947;-69
2022/12/09 14:53:55;;;;;;;;;;;;;;;4.30;61.42;96714.56;4820544;29;20334;-69
2022/12/09 14:56:22;;;;;;;;;;;;;;;4.22;61.35;96712.50;4848074;29;20297;-66
2022/12/09 14:58:48;;;;;;;;;;;;;;;4.16;61.74;96715.50;4835310;29;19916;-67
2022/12/09 15:01:13;;;;;;;;;;;;;;;4.10;61.90;96709.91;4805020;29;20003;-66
2022/12/09 15:03:38;;;;;;;;;;;;;;;4.03;62.38;96712.09;4845859;29;20019;-67
2022/12/09 15:06:04;;;;;;;;;;;;;;;3.98;62.04;96714.13;4836630;29;20347;-66
2022/12/09 15:08:30;;;;;;;;;;;;;;;3.89;62.05;96707.78;4833821;29;19924;-65
2022/12/09 15:10:55;;;;;;;;;;;;;;;3.85;62.96;96708.91;4817057;29;19917;-67
2022/12/09 15:13:20;;;;;;;;;;;;;;;3.82;63.35;96709.13;4831383;29;19967;-67
2022/12/09 15:15:45;;;;;;;;;;;;;;;3.76;62.59;96704.34;4826315;29;19968;-67
2022/12/09 15:18:18;;;;;;;;;;;;;;;3.73;63.66;96707.97;4841689;29;19943;-68
2022/12/09 15:20:46;;;;;;;;;;;;;;;3.69;63.22;96703.91;4840323;29;19917;-67
2022/12/09 15:23:12;;;;;;;;;;;;;;;3.67;63.41;96710.09;4839335;29;20007;-66
2022/12/09 15:25:42;;;;;;;;;;;;;;;3.60;62.58;96706.25;4826405;29;20007;-69
2022/12/09 15:28:14;;;;;;;;;;;;;;;3.54;63.84;96710.06;4815748;29;20282;-67
2022/12/09 15:30:40;;;;;;;;;;;;;;;3.47;64.42;96707.03;4848696;29;20423;-67
2022/12/09 15:33:11;;;;;;;;;;;;;;;3.43;63.96;96702.16;4836017;29;19916;-67
2022/12/09 15:35:36;;;;;;;;;;;;;;;3.40;64.07;96703.16;4825613;29;20375;-67
2022/12/09 15:38:03;;;;;;;;;;;;;;;3.36;65.05;96701.69;4826618;29;20392;-67
2022/12/09 15:40:29;;;;;;;;;;;;;;;3.33;63.81;96704.47;4847755;29;19921;-67
2022/12/09 15:42:55;;;;;;;;;;;;;;;3.30;65.45;96707.25;4834056;29;19969;-68
2022/12/09 15:45:21;;;;;;;;;;;;;;;3.27;65.86;96708.31;4838944;29;19917;-68
2022/12/09 15:47:57;;;;;;;;;;;;;;;3.24;66.38;96702.50;4826896;29;20015;-68
2022/12/09 15:50:23;;;;;;;;;;;;;;;3.22;65.18;96709.53;4822676;29;20047;-67
2022/12/09 15:52:51;;;;;;;;;;;;;;;3.18;64.70;96713.25;4834299;29;19924;-65
2022/12/09 15:55:18;;;;;;;;;;;;;;;3.12;65.96;96713.63;4824607;29;20172;-64
2022/12/09 15:57:43;;;;;;;;;;;;;;;3.11;65.45;96711.97;4821183;29;19940;-65
2022/12/09 16:00:08;;;;;;;;;;;;;;;3.08;65.63;96707.78;4852090;29;20392;-65
2022/12/09 16:02:34;;;;;;;;;;;;;;;3.25;77.29;96714.50;4838254;29;20285;-66
2022/12/09 16:05:00;;;;;;;;;;;;;;;3.34;74.49;96719.13;4842396;29;20404;-65
2022/12/09 16:07:26;;;;;;;;;;;;;;;3.38;71.98;96720.59;4840351;29;19917;-65
2022/12/09 16:10:02;;;;;;;;;;;;;;;3.42;71.25;96727.25;4830968;29;19923;-64
2022/12/09 16:12:27;;;;;;;;;;;;;;;3.48;71.19;96720.84;4830705;29;20337;-66
2022/12/09 16:14:53;;;;;;;;;;;;;;;3.52;71.42;96723.13;4831370;29;20433;-66
2022/12/09 16:17:22;;;;;;;;;;;;;;;3.56;71.37;96718.59;4822610;29;20329;-66
2022/12/09 16:19:48;;;;;;;;;;;;;;;3.59;71.08;96720.97;4839104;29;19916;-66
2022/12/09 16:22:13;;;;;;;;;;;;;;;3.59;70.54;96727.94;4851453;29;20404;-66
2022/12/09 16:24:45;;;;;;;;;;;;;;;3.60;70.55;96722.63;4832439;29;20285;-66
2022/12/09 16:27:11;;;;;;;;;;;;;;;3.61;70.34;96715.69;4810961;29;20019;-66
2022/12/09 16:29:36;;;;;;;;;;;;;;;3.52;66.84;96711.94;4805356;29;19916;-66
2022/12/09 16:32:20;;;;;;;;;;;;;;;3.41;66.26;96717.81;4852385;29;20408;-65
2022/12/09 16:34:46;;;;;;;;;;;;;;;3.21;65.43;96711.28;4833309;29;19952;-67
2022/12/09 16:37:28;;;;;;;;;;;;;;;3.14;66.70;96717.78;4851652;29;19951;-68
2022/12/09 16:39:53;;;;;;;;;;;;;;;3.06;68.10;96725.19;4821877;29;20000;-66
2022/12/09 16:42:36;;;;;;;;;;;;;;;2.96;68.74;96714.56;4817175;29;20015;-65
2022/12/09 16:45:20;;;;;;;;;;;;;;;2.90;68.68;96717.53;4832136;29;20354;-68
2022/12/09 16:47:45;;;;;;;;;;;;;;;2.81;69.59;96713.75;4825806;29;19921;-66
2022/12/09 16:50:11;;;;;;;;;;;;;;;2.71;69.53;96724.75;4842090;29;19921;-65
2022/12/09 16:52:36;;;;;;;;;;;;;;;2.64;69.62;96718.28;4817000;29;19916;-66
2022/12/09 16:55:01;;;;;;;;;;;;;;;2.56;70.87;96727.34;4849236;29;19923;-66
2022/12/09 16:57:26;;;;;;;;;;;;;;;2.51;70.47;96736.28;4823504;29;20276;-66
2022/12/09 16:59:52;;;;;;;;;;;;;;;2.47;70.82;96733.06;4834701;29;20302;-66
2022/12/09 17:02:22;;;;;;;;;;;;;;;2.48;71.82;96739.06;4834352;29;19959;-68
2022/12/09 17:04:48;;;;;;;;;;;;;;;2.47;71.80;96735.66;4848424;29;19920;-65
2022/12/09 17:07:13;;;;;;;;;;;;;;;2.47;71.59;96737.41;4836796;29;19942;-65
2022/12/09 17:09:38;;;;;;;;;;;;;;;2.42;72.16;96742.88;4828847;29;19959;-65
2022/12/09 17:12:03;;;;;;;;;;;;;;;2.37;72.20;96742.28;4822886;29;20298;-66
2022/12/09 17:14:29;;;;;;;;;;;;;;;2.36;72.01;96745.81;4844986;29;19963;-66
2022/12/09 17:16:54;;;;;;;;;;;;;;;2.32;72.59;96744.31;4822834;29;19925;-66
2022/12/09 17:19:19;;;;;;;;;;;;;;;2.30;72.64;96746.16;4816708;29;19917;-66
2022/12/09 17:21:44;;;;;;;;;;;;;;;2.24;72.74;96756.88;4822148;29;20238;-67
2022/12/09 17:24:10;;;;;;;;;;;;;;;2.22;72.20;96763.91;4822069;29;20015;-66
2022/12/09 17:26:35;;;;;;;;;;;;;;;2.12;72.37;96758.41;4826854;29;19939;-67
2022/12/09 17:29:00;;;;;;;;;;;;;;;2.06;73.74;96759.59;4819709;29;19928;-65
2022/12/09 17:31:26;;;;;;;;;;;;;;;2.08;73.91;96762.09;4818268;29;19923;-67
2022/12/09 17:33:52;;;;;;;;;;;;;;;2.08;73.77;96772.44;4821751;29;20357;-66
2022/12/09 17:36:17;;;;;;;;;;;;;;;2.00;73.42;96775.47;4826702;29;19913;-67
2022/12/09 17:38:42;;;;;;;;;;;;;;;1.95;73.55;96772.31;4808293;29;20048;-66
2022/12/09 17:41:08;;;;;;;;;;;;;;;1.94;74.43;96775.81;4834744;29;19923;-65
2022/12/09 17:43:34;;;;;;;;;;;;;;;1.93;74.15;96770.72;4825436;29;20015;-65
2022/12/09 17:45:59;;;;;;;;;;;;;;;1.94;74.57;96775.00;4839567;29;20416;-64
2022/12/09 17:48:25;;;;;;;;;;;;;;;1.81;74.43;96775.69;4837871;29;19917;-64
2022/12/09 17:50:50;;;;;;;;;;;;;;;1.78;74.67;96777.59;4822596;29;19925;-63
2022/12/09 17:53:15;;;;;;;;;;;;;;;1.72;73.91;96780.53;4830167;29;20019;-63
2022/12/09 17:55:40;;;;;;;;;;;;;;;1.70;74.75;96788.38;4830129;29;19916;-64
2022/12/09 17:58:05;;;;;;;;;;;;;;;1.68;75.20;96785.03;4831834;29;19924;-66
2022/12/09 18:00:32;;;;;;;;;;;;;;;1.63;74.58;96777.53;4817323;29;19925;-66
2022/12/09 18:02:57;;;;;;;;;;;;;;;1.65;75.00;96778.31;4817808;29;19973;-64
2022/12/09 18:05:23;;;;;;;;;;;;;;;1.65;75.40;96788.63;4825186;29;19917;-65
2022/12/09 18:07:48;;;;;;;;;;;;;;;1.55;74.15;96797.81;4824318;29;19977;-66
2022/12/09 18:10:13;;;;;;;;;;;;;;;1.50;74.71;96804.16;4828223;29;19913;-66
2022/12/09 18:12:38;;;;;;;;;;;;;;;1.45;75.05;96804.41;4817770;29;19927;-66
2022/12/09 18:15:03;;;;;;;;;;;;;;;1.47;75.67;96796.56;4834272;29;19916;-66
2022/12/09 18:17:31;;;;;;;;;;;;;;;1.47;75.41;96797.38;4829453;29;19920;-66
2022/12/09 18:19:56;;;;;;;;;;;;;;;1.43;75.05;96796.72;4830220;29;19912;-66
2022/12/09 18:22:21;;;;;;;;;;;;;;;1.40;75.48;96798.63;4828830;29;19916;-67
2022/12/09 18:24:47;;;;;;;;;;;;;;;1.43;76.08;96801.06;4825525;29;19920;-66
2022/12/09 18:27:12;;;;;;;;;;;;;;;1.43;76.12;96801.06;4818008;29;19917;-67
2022/12/09 18:29:40;;;;;;;;;;;;;;;1.43;76.12;96801.06;4829408;29;19920;-67
2022/12/09 18:32:05;;;;;;;;;;;;;;;1.42;76.02;96799.41;4834350;29;20014;-67
2022/12/09 18:34:31;;;;;;;;;;;;;;;1.41;76.09;96802.88;4828245;29;20011;-67
2022/12/09 18:36:56;;;;;;;;;;;;;;;1.28;75.05;96799.31;4835126;29;19924;-67
2022/12/09 18:39:22;;;;;;;;;;;;;;;1.27;75.50;96807.97;4836355;29;19916;-67
2022/12/09 18:41:47;;;;;;;;;;;;;;;1.23;75.25;96809.03;4822697;29;19917;-67
2022/12/09 18:44:12;;;;;;;;;;;;;;;1.34;81.09;96804.97;4821515;29;19919;-67
2022/12/09 18:46:38;;;;;;;;;;;;;;;1.39;79.73;96800.38;4824986;29;19981;-67
2022/12/09 18:49:03;;;;;;;;;;;;;;;1.52;80.64;96799.75;4820285;29;19960;-66
2022/12/09 18:51:29;;;;;;;;;;;;;;;1.55;79.37;96802.13;4829739;29;20347;-66
2022/12/09 18:53:55;;;;;;;;;;;;;;;1.59;79.67;96801.91;4819485;29;20381;-67
2022/12/09 18:56:20;;;;;;;;;;;;;;;1.61;79.70;96802.63;4835000;29;19917;-67
2022/12/09 18:58:45;;;;;;;;;;;;;;;1.67;80.40;96799.72;4826151;29;19981;-67
2022/12/09 19:01:12;;;;;;;;;;;;;;;1.73;80.42;96808.06;4826391;29;19916;-68
2022/12/09 19:03:38;;;;;;;;;;;;;;;1.77;80.19;96810.38;4827049;29;20392;-66
2022/12/09 19:06:03;;;;;;;;;;;;;;;1.79;79.01;96802.53;4835387;29;19925;-66
2022/12/09 19:08:29;;;;;;;;;;;;;;;2.30;84.92;96805.66;4812895;29;19933;-66
2022/12/09 19:10:54;;;;;;;;;;;;;;;2.09;79.53;96813.72;4818402;29;19917;-67
2022/12/09 19:13:19;;;;;;;;;;;;;;;1.89;75.84;96814.03;4817891;29;19917;-67
2022/12/09 19:15:44;;;;;;;;;;;;;;;1.77;75.23;96823.31;4819924;29;19916;-67
2022/12/09 19:18:10;;;;;;;;;;;;;;;1.62;75.57;96830.16;4818906;29;19994;-67
2022/12/09 19:20:35;;;;;;;;;;;;;;;1.53;75.78;96828.06;4835018;29;19921;-66
2022/12/09 19:23:01;;;;;;;;;;;;;;;1.46;75.84;96834.47;4821587;29;19917;-66
2022/12/09 19:25:26;;;;;;;;;;;;;;;1.42;76.13;96844.16;4823921;29;19912;-69
2022/12/09 19:27:51;;;;;;;;;;;;;;;1.32;75.83;96835.22;4849627;29;20034;-65
2022/12/09 19:30:16;;;;;;;;;;;;;;;1.33;76.31;96836.06;4822989;29;19916;-67
2022/12/09 19:32:42;;;;;;;;;;;;;;;1.25;75.64;96839.06;4844926;29;19913;-68
2022/12/09 19:35:07;;;;;;;;;;;;;;;1.19;75.96;96837.63;4852295;29;19923;-67
2022/12/09 19:37:32;;;;;;;;;;;;;;;1.14;76.51;96844.78;4823332;29;19924;-67
2022/12/09 19:39:57;;;;;;;;;;;;;;;1.09;77.00;96839.00;4819527;29;19921;-66
2022/12/09 19:42:22;;;;;;;;;;;;;;;1.06;76.84;96849.50;4826359;29;19922;-67
2022/12/09 19:44:49;;;;;;;;;;;;;;;1.03;77.51;96841.91;4812735;29;19917;-67
2022/12/09 19:47:14;;;;;;;;;;;;;;;1.00;77.47;96842.09;4843696;29;20012;-67